sensor_id;sensor_type;location;lat;lon;timestamp;P1;durP1;ratioP1;P2;durP2;ratioP2
62401;SDS011;48440;51.224;22.506;2023-01-19T00:01:52;51.42;;;20.65;;
62401;SDS011;48440;51.224;22.506;2023-01-19T00:04:17;41.72;;;17.67;;
62401;SDS011;48440;51.224;22.506;2023-01-19T00:06:43;48.75;;;19.70;;
62401;SDS011;48440;51.224;22.506;2023-01-19T00:09:09;43.63;;;19.75;;
62401;SDS011;48440;51.224;22.506;2023-01-19T00:11:34;47.15;;;19.98;;
62401;SDS011;48440;51.224;22.506;2023-01-19T00:14:00;40.78;;;18.08;;
62401;SDS011;48440;51.224;22.506;2023-01-19T00:16:25;45.20;;;19.15;;
62401;SDS011;48440;51.224;22.506;2023-01-19T00:18:51;48.50;;;19.73;;
62401;SDS011;48440;51.224;22.506;2023-01-19T00:21:17;42.53;;;19.02;;
62401;SDS011;48440;51.224;22.506;2023-01-19T00:23:43;41.00;;;19.50;;
62401;SDS011;48440;51.224;22.506;2023-01-19T00:26:11;41.15;;;18.77;;
62401;SDS011;48440;51.224;22.506;2023-01-19T00:28:41;42.45;;;18.45;;
62401;SDS011;48440;51.224;22.506;2023-01-19T00:31:07;41.95;;;19.85;;
62401;SDS011;48440;51.224;22.506;2023-01-19T00:33:33;45.03;;;18.98;;
62401;SDS011;48440;51.224;22.506;2023-01-19T00:35:58;41.70;;;19.73;;
62401;SDS011;48440;51.224;22.506;2023-01-19T00:38:24;47.20;;;20.77;;
62401;SDS011;48440;51.224;22.506;2023-01-19T00:40:49;48.92;;;21.02;;
62401;SDS011;48440;51.224;22.506;2023-01-19T00:43:15;48.00;;;20.33;;
62401;SDS011;48440;51.224;22.506;2023-01-19T00:45:40;45.83;;;20.02;;
62401;SDS011;48440;51.224;22.506;2023-01-19T00:48:06;49.33;;;20.95;;
62401;SDS011;48440;51.224;22.506;2023-01-19T00:50:32;53.38;;;21.38;;
62401;SDS011;48440;51.224;22.506;2023-01-19T00:52:58;49.45;;;21.92;;
62401;SDS011;48440;51.224;22.506;2023-01-19T00:55:27;44.95;;;21.35;;
62401;SDS011;48440;51.224;22.506;2023-01-19T00:57:54;45.15;;;19.30;;
62401;SDS011;48440;51.224;22.506;2023-01-19T01:00:20;44.47;;;20.55;;
62401;SDS011;48440;51.224;22.506;2023-01-19T01:02:47;47.05;;;20.20;;
62401;SDS011;48440;51.224;22.506;2023-01-19T01:05:14;47.13;;;20.10;;
62401;SDS011;48440;51.224;22.506;2023-01-19T01:07:40;45.25;;;20.00;;
62401;SDS011;48440;51.224;22.506;2023-01-19T01:10:19;44.22;;;20.30;;
62401;SDS011;48440;51.224;22.506;2023-01-19T01:12:47;47.92;;;20.85;;
62401;SDS011;48440;51.224;22.506;2023-01-19T01:15:14;42.83;;;20.05;;
62401;SDS011;48440;51.224;22.506;2023-01-19T01:17:41;50.50;;;21.05;;
62401;SDS011;48440;51.224;22.506;2023-01-19T01:20:18;48.00;;;19.75;;
62401;SDS011;48440;51.224;22.506;2023-01-19T01:22:47;50.67;;;20.70;;
62401;SDS011;48440;51.224;22.506;2023-01-19T01:25:15;48.78;;;20.90;;
62401;SDS011;48440;51.224;22.506;2023-01-19T01:27:42;42.83;;;19.92;;
62401;SDS011;48440;51.224;22.506;2023-01-19T01:30:09;47.00;;;20.35;;
62401;SDS011;48440;51.224;22.506;2023-01-19T01:32:36;47.80;;;21.75;;
62401;SDS011;48440;51.224;22.506;2023-01-19T01:35:02;44.20;;;19.75;;
62401;SDS011;48440;51.224;22.506;2023-01-19T01:37:28;44.33;;;19.90;;
62401;SDS011;48440;51.224;22.506;2023-01-19T01:39:54;47.83;;;20.55;;
62401;SDS011;48440;51.224;22.506;2023-01-19T01:42:24;54.05;;;20.55;;
62401;SDS011;48440;51.224;22.506;2023-01-19T01:44:54;44.28;;;20.60;;
62401;SDS011;48440;51.224;22.506;2023-01-19T01:47:26;48.78;;;21.20;;
62401;SDS011;48440;51.224;22.506;2023-01-19T01:49:59;45.53;;;20.17;;
62401;SDS011;48440;51.224;22.506;2023-01-19T01:52:31;46.70;;;20.98;;
62401;SDS011;48440;51.224;22.506;2023-01-19T01:54:59;43.60;;;19.20;;
62401;SDS011;48440;51.224;22.506;2023-01-19T01:57:27;44.78;;;19.92;;
62401;SDS011;48440;51.224;22.506;2023-01-19T01:59:54;51.92;;;20.00;;
62401;SDS011;48440;51.224;22.506;2023-01-19T02:02:24;44.25;;;20.02;;
62401;SDS011;48440;51.224;22.506;2023-01-19T02:05:32;52.55;;;20.75;;
62401;SDS011;48440;51.224;22.506;2023-01-19T02:08:01;42.05;;;19.73;;
62401;SDS011;48440;51.224;22.506;2023-01-19T02:10:49;40.67;;;18.92;;
62401;SDS011;48440;51.224;22.506;2023-01-19T02:13:34;47.58;;;20.40;;
62401;SDS011;48440;51.224;22.506;2023-01-19T02:16:05;43.92;;;19.67;;
62401;SDS011;48440;51.224;22.506;2023-01-19T02:18:32;42.90;;;20.83;;
62401;SDS011;48440;51.224;22.506;2023-01-19T02:21:18;50.92;;;20.67;;
62401;SDS011;48440;51.224;22.506;2023-01-19T02:26:24;49.15;;;20.70;;
62401;SDS011;48440;51.224;22.506;2023-01-19T02:28:52;46.67;;;20.77;;
62401;SDS011;48440;51.224;22.506;2023-01-19T02:31:22;42.10;;;18.77;;
62401;SDS011;48440;51.224;22.506;2023-01-19T02:33:49;44.25;;;18.92;;
62401;SDS011;48440;51.224;22.506;2023-01-19T02:36:15;41.53;;;19.38;;
62401;SDS011;48440;51.224;22.506;2023-01-19T02:38:45;40.20;;;19.38;;
62401;SDS011;48440;51.224;22.506;2023-01-19T02:41:14;39.42;;;18.63;;
62401;SDS011;48440;51.224;22.506;2023-01-19T02:43:42;42.72;;;18.88;;
62401;SDS011;48440;51.224;22.506;2023-01-19T02:46:09;46.65;;;18.95;;
62401;SDS011;48440;51.224;22.506;2023-01-19T02:48:35;40.30;;;18.65;;
62401;SDS011;48440;51.224;22.506;2023-01-19T02:51:08;43.90;;;19.52;;
62401;SDS011;48440;51.224;22.506;2023-01-19T02:56:30;43.25;;;19.38;;
62401;SDS011;48440;51.224;22.506;2023-01-19T03:04:34;42.80;;;19.45;;
62401;SDS011;48440;51.224;22.506;2023-01-19T03:09:38;43.72;;;18.90;;
62401;SDS011;48440;51.224;22.506;2023-01-19T03:15:04;44.33;;;19.60;;
62401;SDS011;48440;51.224;22.506;2023-01-19T03:17:47;42.30;;;19.00;;
62401;SDS011;48440;51.224;22.506;2023-01-19T03:20:14;41.92;;;19.52;;
62401;SDS011;48440;51.224;22.506;2023-01-19T03:22:45;43.63;;;18.67;;
62401;SDS011;48440;51.224;22.506;2023-01-19T03:25:14;45.75;;;20.40;;
62401;SDS011;48440;51.224;22.506;2023-01-19T03:27:43;45.15;;;19.13;;
62401;SDS011;48440;51.224;22.506;2023-01-19T03:30:14;46.95;;;19.52;;
62401;SDS011;48440;51.224;22.506;2023-01-19T03:32:48;44.20;;;20.55;;
62401;SDS011;48440;51.224;22.506;2023-01-19T03:35:20;45.72;;;19.75;;
62401;SDS011;48440;51.224;22.506;2023-01-19T03:37:49;48.38;;;20.92;;
62401;SDS011;48440;51.224;22.506;2023-01-19T03:40:18;52.60;;;20.52;;
62401;SDS011;48440;51.224;22.506;2023-01-19T03:42:44;41.33;;;19.25;;
62401;SDS011;48440;51.224;22.506;2023-01-19T03:45:10;46.75;;;20.67;;
62401;SDS011;48440;51.224;22.506;2023-01-19T03:47:37;48.72;;;20.77;;
62401;SDS011;48440;51.224;22.506;2023-01-19T03:50:05;51.50;;;21.42;;
62401;SDS011;48440;51.224;22.506;2023-01-19T03:52:38;50.13;;;21.13;;
62401;SDS011;48440;51.224;22.506;2023-01-19T03:55:04;55.47;;;23.25;;
62401;SDS011;48440;51.224;22.506;2023-01-19T03:57:30;48.72;;;23.02;;
62401;SDS011;48440;51.224;22.506;2023-01-19T03:59:56;56.55;;;23.38;;
62401;SDS011;48440;51.224;22.506;2023-01-19T04:02:22;54.03;;;24.60;;
62401;SDS011;48440;51.224;22.506;2023-01-19T04:04:48;55.42;;;24.88;;
62401;SDS011;48440;51.224;22.506;2023-01-19T04:07:14;51.78;;;24.45;;
62401;SDS011;48440;51.224;22.506;2023-01-19T04:09:39;65.53;;;24.23;;
62401;SDS011;48440;51.224;22.506;2023-01-19T04:12:05;58.08;;;25.65;;
62401;SDS011;48440;51.224;22.506;2023-01-19T04:14:31;56.17;;;23.38;;
62401;SDS011;48440;51.224;22.506;2023-01-19T04:16:56;59.15;;;24.73;;
62401;SDS011;48440;51.224;22.506;2023-01-19T04:19:25;52.80;;;22.73;;
62401;SDS011;48440;51.224;22.506;2023-01-19T04:21:50;53.75;;;24.27;;
62401;SDS011;48440;51.224;22.506;2023-01-19T04:24:16;54.85;;;23.58;;
62401;SDS011;48440;51.224;22.506;2023-01-19T04:26:42;58.05;;;25.65;;
62401;SDS011;48440;51.224;22.506;2023-01-19T04:29:08;63.55;;;26.45;;
62401;SDS011;48440;51.224;22.506;2023-01-19T04:31:33;59.40;;;25.48;;
62401;SDS011;48440;51.224;22.506;2023-01-19T04:33:59;54.63;;;24.52;;
62401;SDS011;48440;51.224;22.506;2023-01-19T04:36:25;60.10;;;25.90;;
62401;SDS011;48440;51.224;22.506;2023-01-19T04:38:52;56.03;;;24.75;;
62401;SDS011;48440;51.224;22.506;2023-01-19T04:41:17;58.40;;;24.88;;
62401;SDS011;48440;51.224;22.506;2023-01-19T04:43:43;61.70;;;24.42;;
62401;SDS011;48440;51.224;22.506;2023-01-19T04:46:08;58.00;;;25.55;;
62401;SDS011;48440;51.224;22.506;2023-01-19T04:48:34;58.28;;;24.88;;
62401;SDS011;48440;51.224;22.506;2023-01-19T04:50:59;59.70;;;24.65;;
62401;SDS011;48440;51.224;22.506;2023-01-19T04:53:25;56.80;;;24.27;;
62401;SDS011;48440;51.224;22.506;2023-01-19T04:55:53;64.75;;;25.92;;
62401;SDS011;48440;51.224;22.506;2023-01-19T04:58:19;55.08;;;24.63;;
62401;SDS011;48440;51.224;22.506;2023-01-19T05:00:45;64.13;;;26.05;;
62401;SDS011;48440;51.224;22.506;2023-01-19T05:03:11;57.03;;;24.52;;
62401;SDS011;48440;51.224;22.506;2023-01-19T05:05:36;56.20;;;24.65;;
62401;SDS011;48440;51.224;22.506;2023-01-19T05:08:02;60.10;;;24.85;;
62401;SDS011;48440;51.224;22.506;2023-01-19T05:10:27;66.28;;;24.98;;
62401;SDS011;48440;51.224;22.506;2023-01-19T05:12:53;59.28;;;25.27;;
62401;SDS011;48440;51.224;22.506;2023-01-19T05:15:19;59.65;;;25.17;;
62401;SDS011;48440;51.224;22.506;2023-01-19T05:17:45;59.33;;;25.92;;
62401;SDS011;48440;51.224;22.506;2023-01-19T05:20:11;61.03;;;26.75;;
62401;SDS011;48440;51.224;22.506;2023-01-19T05:22:38;64.65;;;27.67;;
62401;SDS011;48440;51.224;22.506;2023-01-19T05:25:04;61.80;;;26.25;;
62401;SDS011;48440;51.224;22.506;2023-01-19T05:27:32;66.80;;;26.83;;
62401;SDS011;48440;51.224;22.506;2023-01-19T05:29:58;59.35;;;25.90;;
62401;SDS011;48440;51.224;22.506;2023-01-19T05:32:23;57.00;;;26.02;;
62401;SDS011;48440;51.224;22.506;2023-01-19T05:34:49;55.47;;;25.40;;
62401;SDS011;48440;51.224;22.506;2023-01-19T05:37:14;57.85;;;26.10;;
62401;SDS011;48440;51.224;22.506;2023-01-19T05:39:39;59.65;;;25.75;;
62401;SDS011;48440;51.224;22.506;2023-01-19T05:42:05;53.83;;;24.73;;
62401;SDS011;48440;51.224;22.506;2023-01-19T05:44:31;63.00;;;25.38;;
62401;SDS011;48440;51.224;22.506;2023-01-19T05:46:59;56.33;;;26.05;;
62401;SDS011;48440;51.224;22.506;2023-01-19T05:49:24;60.17;;;25.42;;
62401;SDS011;48440;51.224;22.506;2023-01-19T05:51:50;56.83;;;26.02;;
62401;SDS011;48440;51.224;22.506;2023-01-19T05:54:15;57.05;;;24.80;;
62401;SDS011;48440;51.224;22.506;2023-01-19T05:56:41;57.75;;;26.00;;
62401;SDS011;48440;51.224;22.506;2023-01-19T05:59:06;61.05;;;25.90;;
62401;SDS011;48440;51.224;22.506;2023-01-19T06:01:32;57.90;;;24.70;;
62401;SDS011;48440;51.224;22.506;2023-01-19T06:03:59;58.47;;;25.48;;
62401;SDS011;48440;51.224;22.506;2023-01-19T06:06:25;67.40;;;29.17;;
62401;SDS011;48440;51.224;22.506;2023-01-19T06:08:50;65.65;;;26.50;;
62401;SDS011;48440;51.224;22.506;2023-01-19T06:11:15;61.67;;;27.15;;
62401;SDS011;48440;51.224;22.506;2023-01-19T06:13:41;62.28;;;28.23;;
62401;SDS011;48440;51.224;22.506;2023-01-19T06:16:07;62.85;;;28.05;;
62401;SDS011;48440;51.224;22.506;2023-01-19T06:18:33;64.85;;;28.80;;
62401;SDS011;48440;51.224;22.506;2023-01-19T06:21:05;60.50;;;28.70;;
62401;SDS011;48440;51.224;22.506;2023-01-19T06:23:33;60.60;;;28.27;;
62401;SDS011;48440;51.224;22.506;2023-01-19T06:25:59;62.72;;;26.40;;
62401;SDS011;48440;51.224;22.506;2023-01-19T06:28:25;61.85;;;26.25;;
62401;SDS011;48440;51.224;22.506;2023-01-19T06:30:51;60.35;;;27.55;;
62401;SDS011;48440;51.224;22.506;2023-01-19T06:33:18;61.78;;;26.85;;
62401;SDS011;48440;51.224;22.506;2023-01-19T06:35:44;64.47;;;26.58;;
62401;SDS011;48440;51.224;22.506;2023-01-19T06:38:10;57.50;;;26.25;;
62401;SDS011;48440;51.224;22.506;2023-01-19T06:40:37;57.15;;;26.95;;
62401;SDS011;48440;51.224;22.506;2023-01-19T06:43:04;61.38;;;27.30;;
62401;SDS011;48440;51.224;22.506;2023-01-19T06:45:32;59.80;;;27.55;;
62401;SDS011;48440;51.224;22.506;2023-01-19T06:47:57;64.97;;;27.85;;
62401;SDS011;48440;51.224;22.506;2023-01-19T06:50:23;63.75;;;27.13;;
62401;SDS011;48440;51.224;22.506;2023-01-19T06:52:49;60.05;;;25.80;;
62401;SDS011;48440;51.224;22.506;2023-01-19T06:55:15;66.38;;;28.65;;
62401;SDS011;48440;51.224;22.506;2023-01-19T06:57:41;58.85;;;26.70;;
62401;SDS011;48440;51.224;22.506;2023-01-19T07:00:09;58.92;;;27.20;;
62401;SDS011;48440;51.224;22.506;2023-01-19T07:02:44;61.40;;;26.85;;
62401;SDS011;48440;51.224;22.506;2023-01-19T07:05:10;65.03;;;27.05;;
62401;SDS011;48440;51.224;22.506;2023-01-19T07:07:38;64.72;;;29.10;;
62401;SDS011;48440;51.224;22.506;2023-01-19T07:10:05;63.35;;;29.35;;
62401;SDS011;48440;51.224;22.506;2023-01-19T07:12:32;67.40;;;29.60;;
62401;SDS011;48440;51.224;22.506;2023-01-19T07:14:57;60.60;;;27.60;;
62401;SDS011;48440;51.224;22.506;2023-01-19T07:17:23;68.80;;;30.20;;
62401;SDS011;48440;51.224;22.506;2023-01-19T07:19:48;67.85;;;29.05;;
62401;SDS011;48440;51.224;22.506;2023-01-19T07:22:14;70.07;;;28.38;;
62401;SDS011;48440;51.224;22.506;2023-01-19T07:24:39;76.65;;;29.45;;
62401;SDS011;48440;51.224;22.506;2023-01-19T07:27:05;66.57;;;27.90;;
62401;SDS011;48440;51.224;22.506;2023-01-19T07:29:30;73.55;;;30.20;;
62401;SDS011;48440;51.224;22.506;2023-01-19T07:31:56;68.85;;;29.17;;
62401;SDS011;48440;51.224;22.506;2023-01-19T07:34:21;74.78;;;29.20;;
62401;SDS011;48440;51.224;22.506;2023-01-19T07:36:47;75.93;;;31.13;;
62401;SDS011;48440;51.224;22.506;2023-01-19T07:39:13;76.80;;;31.05;;
62401;SDS011;48440;51.224;22.506;2023-01-19T07:41:38;80.28;;;31.15;;
62401;SDS011;48440;51.224;22.506;2023-01-19T07:44:04;70.63;;;30.95;;
62401;SDS011;48440;51.224;22.506;2023-01-19T07:46:29;74.57;;;31.50;;
62401;SDS011;48440;51.224;22.506;2023-01-19T07:48:57;71.20;;;31.08;;
62401;SDS011;48440;51.224;22.506;2023-01-19T07:51:23;81.07;;;33.72;;
62401;SDS011;48440;51.224;22.506;2023-01-19T07:53:49;79.80;;;33.35;;
62401;SDS011;48440;51.224;22.506;2023-01-19T07:56:14;74.88;;;32.40;;
62401;SDS011;48440;51.224;22.506;2023-01-19T07:58:40;78.70;;;33.22;;
62401;SDS011;48440;51.224;22.506;2023-01-19T08:01:06;76.82;;;32.03;;
62401;SDS011;48440;51.224;22.506;2023-01-19T08:03:33;78.72;;;33.05;;
62401;SDS011;48440;51.224;22.506;2023-01-19T08:05:58;68.70;;;31.77;;
62401;SDS011;48440;51.224;22.506;2023-01-19T08:08:24;75.45;;;32.67;;
62401;SDS011;48440;51.224;22.506;2023-01-19T08:10:50;77.28;;;33.95;;
62401;SDS011;48440;51.224;22.506;2023-01-19T08:13:16;69.93;;;33.05;;
62401;SDS011;48440;51.224;22.506;2023-01-19T08:15:42;79.68;;;33.55;;
62401;SDS011;48440;51.224;22.506;2023-01-19T08:18:08;77.13;;;31.83;;
62401;SDS011;48440;51.224;22.506;2023-01-19T08:20:35;76.75;;;32.78;;
62401;SDS011;48440;51.224;22.506;2023-01-19T08:23:02;79.30;;;32.45;;
62401;SDS011;48440;51.224;22.506;2023-01-19T08:25:38;74.57;;;31.38;;
62401;SDS011;48440;51.224;22.506;2023-01-19T08:28:06;80.40;;;33.58;;
62401;SDS011;48440;51.224;22.506;2023-01-19T08:30:32;72.43;;;33.22;;
62401;SDS011;48440;51.224;22.506;2023-01-19T08:32:58;76.90;;;33.95;;
62401;SDS011;48440;51.224;22.506;2023-01-19T08:35:38;79.90;;;32.47;;
62401;SDS011;48440;51.224;22.506;2023-01-19T08:38:05;81.38;;;32.45;;
62401;SDS011;48440;51.224;22.506;2023-01-19T08:40:33;76.63;;;31.90;;
62401;SDS011;48440;51.224;22.506;2023-01-19T08:43:00;71.78;;;33.25;;
62401;SDS011;48440;51.224;22.506;2023-01-19T08:45:37;77.22;;;33.72;;
62401;SDS011;48440;51.224;22.506;2023-01-19T08:48:12;74.22;;;32.33;;
62401;SDS011;48440;51.224;22.506;2023-01-19T08:50:38;80.13;;;32.95;;
62401;SDS011;48440;51.224;22.506;2023-01-19T08:53:04;81.65;;;33.80;;
62401;SDS011;48440;51.224;22.506;2023-01-19T08:55:36;80.97;;;32.95;;
62401;SDS011;48440;51.224;22.506;2023-01-19T08:58:02;74.43;;;33.35;;
62401;SDS011;48440;51.224;22.506;2023-01-19T09:00:29;78.72;;;33.10;;
62401;SDS011;48440;51.224;22.506;2023-01-19T09:02:57;72.00;;;31.75;;
62401;SDS011;48440;51.224;22.506;2023-01-19T09:05:23;73.18;;;34.53;;
62401;SDS011;48440;51.224;22.506;2023-01-19T09:07:48;89.43;;;35.60;;
62401;SDS011;48440;51.224;22.506;2023-01-19T09:10:15;88.25;;;36.42;;
62401;SDS011;48440;51.224;22.506;2023-01-19T09:12:42;83.47;;;34.67;;
62401;SDS011;48440;51.224;22.506;2023-01-19T09:15:09;83.47;;;35.20;;
62401;SDS011;48440;51.224;22.506;2023-01-19T09:17:38;88.82;;;37.08;;
62401;SDS011;48440;51.224;22.506;2023-01-19T09:20:06;91.03;;;36.00;;
62401;SDS011;48440;51.224;22.506;2023-01-19T09:22:33;92.50;;;36.30;;
62401;SDS011;48440;51.224;22.506;2023-01-19T09:24:58;81.43;;;37.75;;
62401;SDS011;48440;51.224;22.506;2023-01-19T09:27:24;87.15;;;37.25;;
62401;SDS011;48440;51.224;22.506;2023-01-19T09:29:49;81.93;;;37.10;;
62401;SDS011;48440;51.224;22.506;2023-01-19T09:32:18;88.55;;;34.40;;
62401;SDS011;48440;51.224;22.506;2023-01-19T09:34:44;83.07;;;35.50;;
62401;SDS011;48440;51.224;22.506;2023-01-19T09:37:10;84.40;;;35.92;;
62401;SDS011;48440;51.224;22.506;2023-01-19T09:39:35;95.85;;;36.95;;
62401;SDS011;48440;51.224;22.506;2023-01-19T09:42:13;82.65;;;34.63;;
62401;SDS011;48440;51.224;22.506;2023-01-19T09:44:46;87.35;;;34.70;;
62401;SDS011;48440;51.224;22.506;2023-01-19T09:47:15;90.85;;;36.45;;
62401;SDS011;48440;51.224;22.506;2023-01-19T09:49:51;102.78;;;37.55;;
62401;SDS011;48440;51.224;22.506;2023-01-19T09:52:22;88.25;;;35.22;;
62401;SDS011;48440;51.224;22.506;2023-01-19T09:54:55;88.43;;;33.78;;
62401;SDS011;48440;51.224;22.506;2023-01-19T09:57:22;78.05;;;31.55;;
62401;SDS011;48440;51.224;22.506;2023-01-19T09:59:49;72.53;;;30.85;;
62401;SDS011;48440;51.224;22.506;2023-01-19T10:18:23;63.67;;;28.13;;
62401;SDS011;48440;51.224;22.506;2023-01-19T10:21:05;63.28;;;28.70;;
62401;SDS011;48440;51.224;22.506;2023-01-19T10:26:36;73.93;;;29.52;;
62401;SDS011;48440;51.224;22.506;2023-01-19T10:29:09;75.70;;;29.27;;
62401;SDS011;48440;51.224;22.506;2023-01-19T10:31:44;77.00;;;30.40;;
62401;SDS011;48440;51.224;22.506;2023-01-19T10:34:11;78.15;;;29.60;;
62401;SDS011;48440;51.224;22.506;2023-01-19T10:36:42;75.85;;;29.60;;
62401;SDS011;48440;51.224;22.506;2023-01-19T10:39:11;74.07;;;31.52;;
62401;SDS011;48440;51.224;22.506;2023-01-19T10:41:42;89.88;;;32.17;;
62401;SDS011;48440;51.224;22.506;2023-01-19T10:44:08;84.35;;;32.42;;
62401;SDS011;48440;51.224;22.506;2023-01-19T10:49:24;75.75;;;30.33;;
62401;SDS011;48440;51.224;22.506;2023-01-19T10:51:56;75.32;;;30.60;;
62401;SDS011;48440;51.224;22.506;2023-01-19T10:54:22;89.97;;;33.95;;
62401;SDS011;48440;51.224;22.506;2023-01-19T10:56:54;80.28;;;30.77;;
62401;SDS011;48440;51.224;22.506;2023-01-19T10:59:29;91.53;;;33.13;;
62401;SDS011;48440;51.224;22.506;2023-01-19T11:02:15;84.03;;;33.63;;
62401;SDS011;48440;51.224;22.506;2023-01-19T11:04:42;93.03;;;33.78;;
62401;SDS011;48440;51.224;22.506;2023-01-19T11:09:39;82.38;;;33.53;;
62401;SDS011;48440;51.224;22.506;2023-01-19T11:12:07;77.03;;;31.63;;
62401;SDS011;48440;51.224;22.506;2023-01-19T11:14:41;78.28;;;30.40;;
62401;SDS011;48440;51.224;22.506;2023-01-19T11:17:12;79.68;;;31.73;;
62401;SDS011;48440;51.224;22.506;2023-01-19T11:19:43;73.15;;;30.40;;
62401;SDS011;48440;51.224;22.506;2023-01-19T11:22:23;78.25;;;30.15;;
62401;SDS011;48440;51.224;22.506;2023-01-19T11:24:51;66.18;;;29.27;;
62401;SDS011;48440;51.224;22.506;2023-01-19T11:27:22;75.43;;;30.23;;
62401;SDS011;48440;51.224;22.506;2023-01-19T11:30:02;66.47;;;27.13;;
62401;SDS011;48440;51.224;22.506;2023-01-19T11:32:34;61.50;;;24.95;;
62401;SDS011;48440;51.224;22.506;2023-01-19T11:35:01;64.88;;;26.00;;
62401;SDS011;48440;51.224;22.506;2023-01-19T11:37:47;64.43;;;26.55;;
62401;SDS011;48440;51.224;22.506;2023-01-19T11:40:14;67.82;;;27.25;;
62401;SDS011;48440;51.224;22.506;2023-01-19T11:42:40;62.03;;;27.63;;
62401;SDS011;48440;51.224;22.506;2023-01-19T11:45:11;62.20;;;25.33;;
62401;SDS011;48440;51.224;22.506;2023-01-19T11:47:43;58.38;;;25.50;;
62401;SDS011;48440;51.224;22.506;2023-01-19T11:50:13;60.55;;;26.20;;
62401;SDS011;48440;51.224;22.506;2023-01-19T11:55:40;60.75;;;25.02;;
62401;SDS011;48440;51.224;22.506;2023-01-19T11:58:15;57.10;;;24.52;;
62401;SDS011;48440;51.224;22.506;2023-01-19T12:00:48;64.43;;;26.20;;
62401;SDS011;48440;51.224;22.506;2023-01-19T12:03:28;62.08;;;24.40;;
62401;SDS011;48440;51.224;22.506;2023-01-19T12:06:11;60.72;;;24.75;;
62401;SDS011;48440;51.224;22.506;2023-01-19T12:11:15;60.63;;;24.27;;
62401;SDS011;48440;51.224;22.506;2023-01-19T12:13:44;62.40;;;24.88;;
62401;SDS011;48440;51.224;22.506;2023-01-19T12:16:18;56.90;;;23.30;;
62401;SDS011;48440;51.224;22.506;2023-01-19T12:18:51;54.67;;;22.00;;
62401;SDS011;48440;51.224;22.506;2023-01-19T12:21:22;52.03;;;23.08;;
62401;SDS011;48440;51.224;22.506;2023-01-19T12:23:50;53.72;;;23.80;;
62401;SDS011;48440;51.224;22.506;2023-01-19T12:29:02;57.22;;;23.60;;
62401;SDS011;48440;51.224;22.506;2023-01-19T12:31:34;52.05;;;21.98;;
62401;SDS011;48440;51.224;22.506;2023-01-19T12:34:26;47.40;;;21.13;;
62401;SDS011;48440;51.224;22.506;2023-01-19T12:37:02;55.25;;;21.70;;
62401;SDS011;48440;51.224;22.506;2023-01-19T12:39:29;54.38;;;21.23;;
62401;SDS011;48440;51.224;22.506;2023-01-19T12:42:12;51.58;;;21.55;;
62401;SDS011;48440;51.224;22.506;2023-01-19T12:44:41;54.65;;;22.90;;
62401;SDS011;48440;51.224;22.506;2023-01-19T12:55:27;59.50;;;23.92;;
62401;SDS011;48440;51.224;22.506;2023-01-19T13:00:49;64.03;;;23.55;;
62401;SDS011;48440;51.224;22.506;2023-01-19T13:03:42;62.00;;;23.33;;
62401;SDS011;48440;51.224;22.506;2023-01-19T13:06:10;65.32;;;23.80;;
62401;SDS011;48440;51.224;22.506;2023-01-19T13:14:37;61.40;;;22.42;;
62401;SDS011;48440;51.224;22.506;2023-01-19T13:17:05;57.40;;;24.60;;
62401;SDS011;48440;51.224;22.506;2023-01-19T13:19:46;57.75;;;22.58;;
62401;SDS011;48440;51.224;22.506;2023-01-19T13:25:34;48.95;;;21.73;;
62401;SDS011;48440;51.224;22.506;2023-01-19T13:28:00;50.83;;;21.27;;
62401;SDS011;48440;51.224;22.506;2023-01-19T13:30:31;48.25;;;19.85;;
62401;SDS011;48440;51.224;22.506;2023-01-19T13:33:03;51.60;;;22.05;;
62401;SDS011;48440;51.224;22.506;2023-01-19T13:35:37;46.65;;;20.08;;
62401;SDS011;48440;51.224;22.506;2023-01-19T13:38:03;45.88;;;19.98;;
62401;SDS011;48440;51.224;22.506;2023-01-19T13:40:35;45.40;;;19.77;;
62401;SDS011;48440;51.224;22.506;2023-01-19T13:43:03;43.30;;;18.83;;
62401;SDS011;48440;51.224;22.506;2023-01-19T13:45:39;45.42;;;19.17;;
62401;SDS011;48440;51.224;22.506;2023-01-19T13:48:06;42.45;;;20.17;;
62401;SDS011;48440;51.224;22.506;2023-01-19T13:50:39;41.45;;;19.58;;
62401;SDS011;48440;51.224;22.506;2023-01-19T13:53:15;43.35;;;19.42;;
62401;SDS011;48440;51.224;22.506;2023-01-19T13:55:42;48.72;;;19.77;;
62401;SDS011;48440;51.224;22.506;2023-01-19T13:58:21;36.95;;;18.23;;
62401;SDS011;48440;51.224;22.506;2023-01-19T14:00:50;39.33;;;17.48;;
62401;SDS011;48440;51.224;22.506;2023-01-19T14:03:16;38.85;;;17.63;;
62401;SDS011;48440;51.224;22.506;2023-01-19T14:05:48;44.55;;;18.38;;
62401;SDS011;48440;51.224;22.506;2023-01-19T14:08:16;38.72;;;18.50;;
62401;SDS011;48440;51.224;22.506;2023-01-19T14:13:13;35.28;;;18.13;;
62401;SDS011;48440;51.224;22.506;2023-01-19T14:15:44;33.90;;;17.45;;
62401;SDS011;48440;51.224;22.506;2023-01-19T14:20:36;34.67;;;18.02;;
62401;SDS011;48440;51.224;22.506;2023-01-19T14:23:02;37.08;;;17.73;;
62401;SDS011;48440;51.224;22.506;2023-01-19T14:25:30;40.10;;;18.73;;
62401;SDS011;48440;51.224;22.506;2023-01-19T14:33:41;41.35;;;19.15;;
62401;SDS011;48440;51.224;22.506;2023-01-19T14:36:16;39.97;;;17.70;;
62401;SDS011;48440;51.224;22.506;2023-01-19T14:38:45;44.60;;;19.20;;
62401;SDS011;48440;51.224;22.506;2023-01-19T14:41:11;42.58;;;19.10;;
62401;SDS011;48440;51.224;22.506;2023-01-19T14:43:47;44.95;;;20.92;;
62401;SDS011;48440;51.224;22.506;2023-01-19T14:46:15;51.55;;;20.83;;
62401;SDS011;48440;51.224;22.506;2023-01-19T14:48:46;41.35;;;19.52;;
62401;SDS011;48440;51.224;22.506;2023-01-19T14:51:17;45.65;;;22.00;;
62401;SDS011;48440;51.224;22.506;2023-01-19T14:53:46;47.53;;;19.92;;
62401;SDS011;48440;51.224;22.506;2023-01-19T14:56:28;37.50;;;18.15;;
62401;SDS011;48440;51.224;22.506;2023-01-19T14:58:57;39.78;;;18.95;;
62401;SDS011;48440;51.224;22.506;2023-01-19T15:01:24;44.60;;;18.92;;
62401;SDS011;48440;51.224;22.506;2023-01-19T15:03:52;40.13;;;19.08;;
62401;SDS011;48440;51.224;22.506;2023-01-19T15:06:21;38.85;;;18.65;;
62401;SDS011;48440;51.224;22.506;2023-01-19T15:08:48;43.65;;;21.45;;
62401;SDS011;48440;51.224;22.506;2023-01-19T15:13:56;44.78;;;21.27;;
62401;SDS011;48440;51.224;22.506;2023-01-19T15:16:23;45.08;;;22.77;;
62401;SDS011;48440;51.224;22.506;2023-01-19T15:18:50;48.13;;;22.25;;
62401;SDS011;48440;51.224;22.506;2023-01-19T15:21:17;41.30;;;21.35;;
62401;SDS011;48440;51.224;22.506;2023-01-19T15:23:53;43.85;;;21.90;;
62401;SDS011;48440;51.224;22.506;2023-01-19T15:26:20;47.83;;;23.23;;
62401;SDS011;48440;51.224;22.506;2023-01-19T15:28:47;49.30;;;23.75;;
62401;SDS011;48440;51.224;22.506;2023-01-19T15:31:14;51.25;;;22.42;;
62401;SDS011;48440;51.224;22.506;2023-01-19T15:33:41;49.35;;;23.50;;
62401;SDS011;48440;51.224;22.506;2023-01-19T15:36:10;48.35;;;22.48;;
62401;SDS011;48440;51.224;22.506;2023-01-19T15:38:39;50.00;;;24.30;;
62401;SDS011;48440;51.224;22.506;2023-01-19T15:41:14;57.50;;;26.20;;